Time;durP1;ratioP1;P1;durP2;ratioP2;P2;SDS_P1;SDS_P2;PMS_P1;PMS_P2;Temp;Humidity;BMP_temperature;BMP_pressure;BME280_temperature;BME280_humidity;BME280_pressure;Samples;Min_cycle;Max_cycle;Signal;HPM_P1;HPM_P2
2021/05/13 00:02:13;;;;;;;17.50;15.60;;;11.70;99.90;;;;;;5052710;28;20424;-77
2021/05/13 00:04:39;;;;;;;19.73;17.47;;;11.70;99.90;;;;;;5061712;28;20198;-77
2021/05/13 00:07:05;;;;;;;20.83;17.37;;;11.70;99.90;;;;;;5057851;28;20244;-76
2021/05/13 00:09:32;;;;;;;17.47;15.63;;;11.70;99.90;;;;;;5052220;28;20542;-77
2021/05/13 00:12:00;;;;;;;21.00;17.60;;;11.70;99.90;;;;;;5063704;28;20452;-77
2021/05/13 00:14:26;;;;;;;17.63;16.00;;;11.70;99.90;;;;;;5057250;28;20453;-77
2021/05/13 00:16:52;;;;;;;17.53;15.57;;;11.70;99.90;;;;;;5069201;28;20823;-76
2021/05/13 00:19:17;;;;;;;18.37;16.70;;;11.60;99.90;;;;;;5071669;28;20167;-76
2021/05/13 00:21:44;;;;;;;18.77;15.57;;;11.70;99.90;;;;;;5058857;28;20479;-76
2021/05/13 00:24:12;;;;;;;17.87;15.97;;;11.70;99.90;;;;;;5059398;28;20580;-76
2021/05/13 00:26:40;;;;;;;18.00;15.87;;;11.70;99.90;;;;;;5064885;28;20421;-76
2021/05/13 00:29:10;;;;;;;21.43;17.70;;;11.70;99.90;;;;;;5065844;28;20762;-76
2021/05/13 00:31:36;;;;;;;22.40;17.17;;;11.70;99.90;;;;;;5071592;28;20542;-76
2021/05/13 00:34:03;;;;;;;17.97;16.10;;;11.70;99.90;;;;;;5071970;28;20397;-76
2021/05/13 00:36:30;;;;;;;17.97;16.00;;;11.70;99.90;;;;;;5066907;28;20412;-76
2021/05/13 00:38:57;;;;;;;16.80;15.03;;;11.60;99.90;;;;;;5059904;28;20420;-76
2021/05/13 00:41:23;;;;;;;18.33;16.57;;;11.60;99.90;;;;;;5037122;28;20431;-76
2021/05/13 00:43:50;;;;;;;18.97;17.10;;;11.60;99.90;;;;;;5056148;28;20465;-76
2021/05/13 00:46:16;;;;;;;17.77;15.73;;;11.60;99.90;;;;;;5037703;28;21170;-76
2021/05/13 00:48:45;;;;;;;18.43;16.63;;;11.40;99.90;;;;;;5037066;28;20451;-76
2021/05/13 00:51:11;;;;;;;17.70;16.00;;;11.40;99.90;;;;;;5052803;28;20470;-77
2021/05/13 00:53:44;;;;;;;17.50;15.90;;;11.40;99.90;;;;;;5051934;28;20421;-77
2021/05/13 00:56:10;;;;;;;19.33;16.47;;;11.30;99.90;;;;;;5056808;28;20222;-76
2021/05/13 00:58:38;;;;;;;20.80;17.97;;;11.20;99.90;;;;;;5056363;28;20404;-76
2021/05/13 01:01:06;;;;;;;19.67;17.67;;;11.10;99.90;;;;;;5075039;28;20174;-76
2021/05/13 01:03:34;;;;;;;18.90;15.70;;;11.10;99.90;;;;;;5072168;28;20789;-76
2021/05/13 01:06:03;;;;;;;17.77;15.90;;;11.10;99.90;;;;;;5074184;28;20485;-76
2021/05/13 01:08:29;;;;;;;19.07;16.17;;;11.10;99.90;;;;;;5072621;28;20767;-76
2021/05/13 01:10:54;;;;;;;16.97;15.27;;;11.00;99.90;;;;;;5037515;28;20559;-76
2021/05/13 01:13:22;;;;;;;22.80;16.67;;;11.00;99.90;;;;;;5056645;28;20421;-76
2021/05/13 01:15:54;;;;;;;18.20;16.40;;;11.00;99.90;;;;;;5055388;28;20194;-76
2021/05/13 01:18:23;;;;;;;16.80;15.10;;;10.90;99.90;;;;;;5055581;28;20421;-76
2021/05/13 01:20:49;;;;;;;16.33;14.30;;;10.80;99.90;;;;;;5072936;28;20416;-76
2021/05/13 01:23:15;;;;;;;18.43;16.40;;;10.80;99.90;;;;;;5072733;28;20508;-76
2021/05/13 01:25:48;;;;;;;18.57;16.37;;;10.80;99.90;;;;;;5074806;28;20526;-76
2021/05/13 01:28:14;;;;;;;18.77;16.23;;;10.80;99.90;;;;;;5079198;28;20430;-76
2021/05/13 01:30:43;;;;;;;19.57;15.37;;;10.70;99.90;;;;;;5060991;28;20447;-76
2021/05/13 01:33:09;;;;;;;17.40;15.30;;;10.70;99.90;;;;;;5059342;28;20166;-76
2021/05/13 01:35:35;;;;;;;20.70;15.80;;;10.70;99.90;;;;;;5040893;28;20977;-76
2021/05/13 01:38:06;;;;;;;17.83;15.30;;;10.50;99.90;;;;;;5068744;28;20414;-76
2021/05/13 01:40:32;;;;;;;19.53;16.97;;;10.50;99.90;;;;;;5054754;28;20170;-76
2021/05/13 01:42:58;;;;;;;19.73;16.50;;;10.50;99.90;;;;;;5057242;28;20496;-76
2021/05/13 01:45:23;;;;;;;18.60;16.67;;;10.50;99.90;;;;;;5074207;28;20189;-76
2021/05/13 01:47:49;;;;;;;19.57;17.47;;;10.50;99.90;;;;;;5074007;28;20204;-77
2021/05/13 01:50:14;;;;;;;17.97;15.70;;;10.50;99.90;;;;;;5075331;28;20167;-77
2021/05/13 01:52:40;;;;;;;16.93;15.13;;;10.50;99.90;;;;;;5068932;28;20566;-77
2021/05/13 01:55:06;;;;;;;18.27;16.23;;;10.50;99.90;;;;;;5056440;28;20688;-77
2021/05/13 01:57:32;;;;;;;17.60;15.73;;;10.50;99.90;;;;;;5072392;28;20257;-76
2021/05/13 01:59:57;;;;;;;18.23;15.90;;;10.40;99.90;;;;;;5070333;28;20453;-77
2021/05/13 02:02:23;;;;;;;18.83;16.47;;;10.40;99.90;;;;;;5055656;28;20201;-77
2021/05/13 02:04:48;;;;;;;18.67;16.70;;;10.40;99.90;;;;;;5056507;28;20221;-77
2021/05/13 02:07:14;;;;;;;18.13;16.27;;;10.30;99.90;;;;;;5055338;28;20175;-77
2021/05/13 02:09:41;;;;;;;18.93;17.07;;;10.30;99.90;;;;;;5046770;28;20705;-76
2021/05/13 02:12:07;;;;;;;21.03;18.80;;;10.30;99.90;;;;;;5054331;28;20461;-76
2021/05/13 02:14:33;;;;;;;18.87;16.50;;;10.30;99.90;;;;;;5061133;28;20991;-77
2021/05/13 02:17:03;;;;;;;22.00;19.57;;;10.30;99.90;;;;;;5048820;28;20424;-77
2021/05/13 02:19:29;;;;;;;22.10;19.70;;;10.30;99.90;;;;;;5063750;28;20971;-76
2021/05/13 02:22:01;;;;;;;24.63;19.70;;;10.30;99.90;;;;;;5055298;28;20836;-77
2021/05/13 02:24:26;;;;;;;21.67;19.37;;;10.20;99.90;;;;;;5055878;28;20446;-77
2021/05/13 02:26:52;;;;;;;21.83;18.43;;;10.20;99.90;;;;;;5046335;28;20167;-76
2021/05/13 02:29:17;;;;;;;19.23;15.83;;;10.30;99.90;;;;;;5053724;28;20193;-76
2021/05/13 02:31:43;;;;;;;18.00;16.30;;;10.20;99.90;;;;;;5055818;28;20211;-78
2021/05/13 02:34:11;;;;;;;20.47;17.57;;;10.20;99.90;;;;;;5063169;28;20590;-77
2021/05/13 02:36:36;;;;;;;20.63;17.17;;;10.20;99.90;;;;;;5062736;28;20476;-77
2021/05/13 02:39:03;;;;;;;22.87;17.50;;;10.10;99.90;;;;;;5073085;28;20810;-77
2021/05/13 02:41:29;;;;;;;19.47;17.00;;;10.10;99.90;;;;;;5074219;28;20235;-77
2021/05/13 02:43:58;;;;;;;18.00;16.10;;;10.10;99.90;;;;;;5063962;28;20515;-76
2021/05/13 02:46:23;;;;;;;20.23;18.03;;;10.10;99.90;;;;;;5050126;28;20198;-76
2021/05/13 02:48:49;;;;;;;24.47;17.90;;;10.00;99.90;;;;;;5058650;28;20449;-77
2021/05/13 02:51:14;;;;;;;21.00;18.40;;;10.00;99.90;;;;;;5055726;28;20268;-77
2021/05/13 02:54:05;;;;;;;19.03;16.70;;;10.00;99.90;;;;;;5039867;28;20181;-77
2021/05/13 02:57:33;;;;;;;22.47;17.50;;;10.00;99.90;;;;;;5057150;28;20555;-77
2021/05/13 03:03:44;;;;;;;22.43;17.53;;;10.00;99.90;;;;;;5056707;28;20902;-77
2021/05/13 03:06:10;;;;;;;24.40;20.10;;;9.90;99.90;;;;;;5050966;28;20456;-77
2021/05/13 03:08:36;;;;;;;22.90;17.33;;;9.90;99.90;;;;;;5055454;28;20807;-76
2021/05/13 03:11:31;;;;;;;24.57;19.23;;;9.90;99.90;;;;;;5075857;28;20186;-77
2021/05/13 03:14:17;;;;;;;29.87;21.13;;;9.90;99.90;;;;;;5063535;28;20643;-77
2021/05/13 03:16:43;;;;;;;25.17;20.50;;;9.90;99.90;;;;;;5071389;28;20421;-76
2021/05/13 03:19:14;;;;;;;22.67;20.47;;;9.90;99.90;;;;;;5073288;28;20412;-77
2021/05/13 03:21:43;;;;;;;26.40;19.63;;;9.90;99.90;;;;;;5048289;28;20235;-76
2021/05/13 03:24:32;;;;;;;21.40;18.00;;;9.80;99.90;;;;;;5072658;28;20464;-76
2021/05/13 03:27:46;;;;;;;26.10;20.20;;;9.80;99.90;;;;;;5068347;28;20417;-76
2021/05/13 03:29:43;;;;;;;25.60;19.87;;;9.80;99.90;;;;;;5050721;28;20462;-77
2021/05/13 03:32:08;;;;;;;24.57;21.23;;;9.80;99.90;;;;;;5038733;28;20548;-77
2021/05/13 03:34:35;;;;;;;24.80;20.23;;;9.80;99.90;;;;;;5061942;28;20272;-76
2021/05/13 03:37:00;;;;;;;26.57;22.07;;;9.80;99.90;;;;;;5052911;28;20209;-77
2021/05/13 03:39:26;;;;;;;22.47;20.07;;;9.80;99.90;;;;;;5066380;28;20424;-77
2021/05/13 03:41:51;;;;;;;23.50;20.97;;;9.80;99.90;;;;;;5055136;28;20171;-77
2021/05/13 03:44:17;;;;;;;28.60;20.87;;;9.80;99.90;;;;;;5069487;28;20174;-77
2021/05/13 03:46:42;;;;;;;26.40;22.93;;;9.80;99.90;;;;;;5071423;28;20215;-77
2021/05/13 03:49:11;;;;;;;27.47;22.60;;;9.80;99.90;;;;;;5057933;28;20185;-77
2021/05/13 03:51:36;;;;;;;27.40;22.60;;;9.80;99.90;;;;;;5060202;28;20204;-77
2021/05/13 03:54:02;;;;;;;25.03;21.40;;;9.80;99.90;;;;;;5072548;28;20468;-77
2021/05/13 03:56:28;;;;;;;26.23;23.10;;;9.80;99.90;;;;;;5055856;28;20223;-77
2021/05/13 03:59:00;;;;;;;26.83;21.87;;;9.80;99.90;;;;;;5056676;28;20611;-76
2021/05/13 04:04:10;;;;;;;23.73;20.43;;;9.70;99.90;;;;;;5073422;28;20432;-77
2021/05/13 04:06:37;;;;;;;29.73;22.87;;;9.80;99.90;;;;;;5075568;28;20982;-77
2021/05/13 04:09:08;;;;;;;29.43;22.57;;;9.70;99.90;;;;;;5062345;28;20417;-77
2021/05/13 04:11:35;;;;;;;26.80;22.47;;;9.70;99.90;;;;;;5054031;28;20449;-77
2021/05/13 04:14:00;;;;;;;25.87;22.60;;;9.80;99.90;;;;;;5053408;28;20425;-77
2021/05/13 04:16:28;;;;;;;23.57;20.63;;;9.80;99.90;;;;;;5070300;28;20497;-77
2021/05/13 04:19:01;;;;;;;24.53;20.93;;;9.90;99.90;;;;;;5059277;28;20181;-77
2021/05/13 04:21:26;;;;;;;27.17;20.10;;;9.90;99.90;;;;;;5060664;28;20798;-77
2021/05/13 04:23:52;;;;;;;24.80;21.27;;;9.90;99.90;;;;;;5057226;28;20442;-77
2021/05/13 04:26:18;;;;;;;24.70;20.70;;;9.80;99.90;;;;;;5056584;28;20201;-77
2021/05/13 04:28:43;;;;;;;26.17;20.73;;;9.90;99.90;;;;;;5053712;28;20433;-76
2021/05/13 04:31:09;;;;;;;34.27;24.57;;;9.90;99.90;;;;;;5071678;28;20665;-77
2021/05/13 04:33:39;;;;;;;27.80;24.30;;;9.90;99.90;;;;;;5074890;28;20182;-76
2021/05/13 04:36:04;;;;;;;28.30;21.30;;;9.90;99.90;;;;;;5054051;28;20202;-77
2021/05/13 04:38:30;;;;;;;26.73;21.23;;;9.90;99.90;;;;;;5065097;28;20559;-76
2021/05/13 04:40:56;;;;;;;26.77;20.07;;;9.90;99.90;;;;;;5059398;28;20174;-77
2021/05/13 04:43:22;;;;;;;26.50;23.70;;;9.90;99.90;;;;;;5066969;28;20424;-76
2021/05/13 04:45:49;;;;;;;23.83;21.40;;;9.90;99.90;;;;;;5052835;28;20451;-77
2021/05/13 04:48:20;;;;;;;24.93;21.47;;;10.00;99.90;;;;;;5053052;28;20190;-77
2021/05/13 04:50:46;;;;;;;21.50;19.20;;;10.10;99.90;;;;;;5052724;28;20833;-77
2021/05/13 04:53:14;;;;;;;26.07;19.97;;;10.10;99.90;;;;;;5053111;28;20528;-77
2021/05/13 04:55:41;;;;;;;34.20;26.77;;;10.20;99.90;;;;;;5052848;28;20195;-77
2021/05/13 04:58:08;;;;;;;23.37;20.07;;;10.30;99.90;;;;;;5065764;28;20448;-78
2021/05/13 05:00:37;;;;;;;25.63;21.00;;;10.30;99.90;;;;;;5065409;28;20470;-77
2021/05/13 05:03:03;;;;;;;21.40;18.90;;;10.40;99.90;;;;;;5071450;28;20864;-77
2021/05/13 05:05:32;;;;;;;25.17;20.03;;;10.50;99.90;;;;;;5039541;28;20882;-77
2021/05/13 05:08:00;;;;;;;20.40;18.30;;;10.50;99.90;;;;;;5058749;28;20445;-76
2021/05/13 05:10:27;;;;;;;22.50;18.73;;;10.50;99.90;;;;;;5037964;28;20503;-76
2021/05/13 05:12:53;;;;;;;21.07;18.87;;;10.50;99.90;;;;;;5048575;28;20431;-75
2021/05/13 05:15:22;;;;;;;22.30;20.10;;;10.60;99.90;;;;;;5060262;28;20531;-77
2021/05/13 05:17:52;;;;;;;44.17;35.83;;;10.70;99.90;;;;;;5078682;28;20188;-77
2021/05/13 05:20:19;;;;;;;24.57;18.90;;;10.80;99.90;;;;;;5077382;28;20887;-76
2021/05/13 05:22:45;;;;;;;18.20;16.30;;;10.80;99.90;;;;;;5078438;28;20964;-76
2021/05/13 05:25:11;;;;;;;19.93;15.87;;;10.90;99.90;;;;;;5058130;28;20879;-76
2021/05/13 05:27:37;;;;;;;16.50;14.30;;;10.90;99.90;;;;;;5068339;28;20495;-76
2021/05/13 05:30:04;;;;;;;17.23;15.57;;;11.00;99.90;;;;;;5070529;28;20432;-76
2021/05/13 05:32:30;;;;;;;15.70;13.27;;;11.00;99.90;;;;;;5058449;28;20265;-77
2021/05/13 05:34:55;;;;;;;16.03;14.53;;;11.20;99.90;;;;;;5051434;28;20947;-76
2021/05/13 05:37:21;;;;;;;16.90;15.07;;;11.30;99.90;;;;;;5051870;28;20178;-76
2021/05/13 05:39:46;;;;;;;18.50;15.10;;;11.70;99.90;;;;;;5070151;28;20662;-77
2021/05/13 05:42:12;;;;;;;18.50;16.67;;;12.00;99.90;;;;;;5069330;28;20228;-77
2021/05/13 05:44:37;;;;;;;17.90;16.13;;;12.20;99.90;;;;;;5070692;28;20202;-76
2021/05/13 05:47:03;;;;;;;18.03;15.30;;;12.70;99.90;;;;;;5055065;28;20257;-77
2021/05/13 05:49:28;;;;;;;15.73;14.03;;;13.20;99.90;;;;;;5055121;28;20719;-76
2021/05/13 05:51:54;;;;;;;15.23;12.07;;;13.60;99.90;;;;;;5046169;28;20198;-77
2021/05/13 05:54:19;;;;;;;13.50;11.37;;;13.30;99.90;;;;;;5076337;28;20181;-77
2021/05/13 05:56:45;;;;;;;12.17;10.80;;;13.50;99.90;;;;;;5051263;28;20175;-77
2021/05/13 05:59:11;;;;;;;11.83;10.23;;;13.50;99.90;;;;;;5058722;28;20174;-77
2021/05/13 06:01:38;;;;;;;11.60;10.00;;;13.60;99.90;;;;;;5057984;28;20265;-77
2021/05/13 06:04:05;;;;;;;11.30;8.93;;;13.60;99.90;;;;;;5065249;28;20175;-77
2021/05/13 06:06:31;;;;;;;11.30;9.93;;;13.60;99.90;;;;;;5077931;28;20907;-77
2021/05/13 06:08:56;;;;;;;11.37;10.27;;;13.60;99.90;;;;;;5066472;28;20417;-77
2021/05/13 06:11:22;;;;;;;11.73;8.97;;;14.00;99.90;;;;;;5054013;28;20667;-77
2021/05/13 06:13:47;;;;;;;10.67;8.90;;;14.10;99.90;;;;;;5054473;28;20171;-77
2021/05/13 06:16:13;;;;;;;10.17;9.17;;;14.60;99.90;;;;;;5068826;28;20261;-77
2021/05/13 06:18:49;;;;;;;12.80;9.17;;;15.30;99.90;;;;;;5074173;28;20174;-76
2021/05/13 06:21:14;;;;;;;15.20;12.37;;;15.70;99.90;;;;;;5069066;28;20240;-79
2021/05/13 06:23:44;;;;;;;13.50;12.20;;;15.90;99.90;;;;;;5075977;28;20438;-78
2021/05/13 06:26:22;;;;;;;15.37;13.07;;;16.70;99.90;;;;;;5062647;28;20190;-78
2021/05/13 06:28:48;;;;;;;13.10;11.77;;;17.00;99.90;;;;;;5048798;28;20433;-77
2021/05/13 06:31:14;;;;;;;13.27;11.87;;;17.60;99.90;;;;;;5045951;28;20448;-77
2021/05/13 06:33:39;;;;;;;13.77;12.47;;;17.60;99.90;;;;;;5051448;28;20183;-78
2021/05/13 06:36:05;;;;;;;14.87;13.27;;;17.70;99.90;;;;;;5049926;28;20198;-79
2021/05/13 06:38:31;;;;;;;17.10;13.80;;;17.80;99.90;;;;;;5055969;28;20178;-78
2021/05/13 06:40:57;;;;;;;15.37;13.80;;;18.10;99.90;;;;;;5036242;28;20543;-77
2021/05/13 06:43:23;;;;;;;18.47;15.87;;;18.40;99.90;;;;;;5058659;28;20493;-77
2021/05/13 06:45:49;;;;;;;17.30;15.60;;;18.50;99.90;;;;;;5072846;28;20436;-76
2021/05/13 06:48:14;;;;;;;16.37;14.77;;;18.90;99.90;;;;;;5075332;28;20200;-77
2021/05/13 06:50:40;;;;;;;17.73;16.10;;;19.10;99.90;;;;;;5054458;28;20187;-78
2021/05/13 06:53:07;;;;;;;17.40;15.60;;;19.30;99.90;;;;;;5054039;28;20167;-77
2021/05/13 06:55:33;;;;;;;16.83;15.13;;;18.90;99.90;;;;;;5053699;28;20194;-77
2021/05/13 06:57:59;;;;;;;18.40;16.70;;;19.30;99.90;;;;;;5053731;28;20428;-78
2021/05/13 07:00:25;;;;;;;18.27;16.37;;;18.50;99.90;;;;;;5037741;28;20405;-78
2021/05/13 07:02:51;;;;;;;18.57;16.60;;;18.20;99.90;;;;;;5066972;28;20473;-77
2021/05/13 07:05:17;;;;;;;20.00;17.80;;;18.30;99.90;;;;;;5075108;28;20425;-77
2021/05/13 07:07:43;;;;;;;19.80;18.00;;;18.60;99.90;;;;;;5075289;28;20483;-78
2021/05/13 07:10:09;;;;;;;15.50;13.93;;;18.90;99.90;;;;;;5051472;28;20167;-78
2021/05/13 07:12:35;;;;;;;21.43;16.77;;;19.10;99.90;;;;;;5054849;28;20218;-78
2021/05/13 07:15:02;;;;;;;16.20;14.63;;;19.00;99.90;;;;;;5037265;28;20428;-78
2021/05/13 07:17:28;;;;;;;16.67;14.77;;;18.90;99.90;;;;;;5063791;28;20166;-79
2021/05/13 07:19:53;;;;;;;20.83;14.93;;;19.20;99.90;;;;;;5068474;28;20417;-78
2021/05/13 07:22:19;;;;;;;14.90;13.60;;;19.30;99.90;;;;;;5037223;28;20265;-78
2021/05/13 07:24:45;;;;;;;12.80;11.60;;;19.90;99.90;;;;;;5054794;28;20178;-79
2021/05/13 07:27:11;;;;;;;14.70;13.30;;;20.00;99.90;;;;;;5037588;28;20171;-78
2021/05/13 07:29:37;;;;;;;12.33;11.33;;;20.70;99.90;;;;;;5054558;28;20412;-79
2021/05/13 07:32:03;;;;;;;16.13;11.90;;;21.20;99.90;;;;;;5068172;28;20194;-77
2021/05/13 07:34:29;;;;;;;11.93;10.83;;;21.40;99.90;;;;;;5077063;28;20440;-79
2021/05/13 07:36:55;;;;;;;11.50;10.30;;;21.50;99.90;;;;;;5058033;28;20493;-78
2021/05/13 07:39:21;;;;;;;13.23;11.93;;;22.00;99.90;;;;;;5060280;28;20174;-78
2021/05/13 07:41:47;;;;;;;12.17;10.90;;;22.10;99.90;;;;;;5057256;28;20206;-79
2021/05/13 07:44:13;;;;;;;9.80;8.90;;;22.00;99.90;;;;;;5055943;28;20445;-78
2021/05/13 07:46:40;;;;;;;9.83;9.10;;;22.10;99.90;;;;;;5072606;28;20231;-78
2021/05/13 07:49:07;;;;;;;11.10;10.03;;;22.50;99.90;;;;;;5065569;28;20185;-79
2021/05/13 07:51:33;;;;;;;10.90;8.60;;;22.90;99.90;;;;;;5071482;28;20454;-78
2021/05/13 07:53:59;;;;;;;8.63;8.03;;;23.20;99.90;;;;;;5055315;28;20433;-78
2021/05/13 07:56:24;;;;;;;8.27;7.50;;;23.10;99.90;;;;;;5073386;28;20515;-78
2021/05/13 07:58:50;;;;;;;8.40;7.80;;;22.80;99.90;;;;;;5061462;28;20194;-78
2021/05/13 08:01:15;;;;;;;10.00;7.80;;;22.50;99.90;;;;;;5053205;28;20171;-78
2021/05/13 08:03:41;;;;;;;9.57;8.57;;;22.40;99.90;;;;;;5071201;28;20547;-79
2021/05/13 08:06:07;;;;;;;7.50;6.70;;;23.20;99.90;;;;;;5072126;28;20198;-78
2021/05/13 08:08:32;;;;;;;8.27;7.47;;;23.70;99.90;;;;;;5072284;28;20212;-78
2021/05/13 08:10:58;;;;;;;6.73;6.23;;;24.20;99.90;;;;;;5061892;28;20220;-77
2021/05/13 08:13:24;;;;;;;6.77;6.17;;;24.60;99.90;;;;;;5054524;28;20261;-78
2021/05/13 08:15:50;;;;;;;6.50;6.00;;;24.70;99.90;;;;;;5057754;28;20225;-77
2021/05/13 08:18:16;;;;;;;6.50;5.77;;;24.70;99.90;;;;;;5072461;28;20635;-76
2021/05/13 08:20:41;;;;;;;6.70;6.10;;;24.90;99.90;;;;;;5053903;28;20448;-78
2021/05/13 08:23:07;;;;;;;6.07;5.67;;;25.20;99.90;;;;;;5072423;28;20533;-78
2021/05/13 08:25:33;;;;;;;6.20;5.60;;;25.40;99.90;;;;;;5062501;28;20197;-77
2021/05/13 08:27:58;;;;;;;6.23;5.57;;;25.10;95.70;;;;;;5057071;28;20170;-78
2021/05/13 08:30:24;;;;;;;8.23;7.43;;;24.80;97.60;;;;;;5064303;28;20175;-78
2021/05/13 08:32:50;;;;;;;6.10;5.57;;;24.30;97.70;;;;;;5046024;28;20244;-79
2021/05/13 08:35:16;;;;;;;5.27;4.80;;;24.40;99.90;;;;;;5048855;28;20578;-78
2021/05/13 08:37:41;;;;;;;4.50;3.90;;;24.70;99.00;;;;;;5060215;28;20413;-77
2021/05/13 08:40:08;;;;;;;6.80;4.60;;;25.20;98.10;;;;;;5051909;28;20718;-78
2021/05/13 08:42:34;;;;;;;5.60;5.10;;;25.50;92.90;;;;;;5052086;28;20237;-78
2021/05/13 08:45:00;;;;;;;5.53;4.90;;;25.60;85.30;;;;;;5046238;28;20543;-79
2021/05/13 08:47:26;;;;;;;8.10;6.00;;;26.10;92.40;;;;;;5054045;28;20166;-79
2021/05/13 08:49:51;;;;;;;5.93;5.33;;;25.90;83.70;;;;;;5066510;28;20444;-78
2021/05/13 08:52:19;;;;;;;7.47;5.77;;;25.10;87.50;;;;;;5062853;28;20194;-78
2021/05/13 08:54:50;;;;;;;6.30;5.70;;;25.10;83.60;;;;;;5043255;28;20195;-78
2021/05/13 08:57:16;;;;;;;5.67;5.27;;;24.50;84.30;;;;;;5065839;28;20417;-76
2021/05/13 08:59:42;;;;;;;9.80;6.07;;;25.10;89.90;;;;;;5069183;28;20431;-78
2021/05/13 09:02:10;;;;;;;6.87;5.80;;;25.20;84.70;;;;;;5042637;28;20650;-78
2021/05/13 09:04:51;;;;;;;7.20;5.60;;;25.40;85.10;;;;;;5036309;28;20445;-77
2021/05/13 09:07:28;;;;;;;5.97;5.43;;;25.70;92.10;;;;;;5051882;28;20516;-78
2021/05/13 09:09:57;;;;;;;6.27;5.67;;;26.00;87.50;;;;;;5050230;28;20424;-77
2021/05/13 09:12:28;;;;;;;7.37;6.17;;;26.00;80.80;;;;;;5071176;28;20512;-78
2021/05/13 09:15:03;;;;;;;6.80;6.10;;;26.20;71.60;;;;;;5059747;28;20445;-78
2021/05/13 09:17:30;;;;;;;11.73;7.00;;;26.20;78.40;;;;;;5054867;28;20480;-78
2021/05/13 09:19:56;;;;;;;6.50;6.00;;;26.70;77.20;;;;;;5041263;28;20428;-78
2021/05/13 09:22:24;;;;;;;7.60;6.90;;;27.00;74.60;;;;;;5061920;28;20466;-78
2021/05/13 09:25:04;;;;;;;11.70;5.77;;;27.20;72.10;;;;;;5037465;28;20856;-79
2021/05/13 09:27:49;;;;;;;7.43;6.60;;;27.50;67.00;;;;;;5065962;28;20423;-78
2021/05/13 09:30:23;;;;;;;7.10;5.50;;;26.50;62.60;;;;;;5061039;28;20469;-79
2021/05/13 09:32:58;;;;;;;5.37;4.87;;;26.40;66.20;;;;;;5074905;28;20542;-78
2021/05/13 09:35:26;;;;;;;5.60;5.10;;;26.70;70.60;;;;;;5067093;28;20436;-78
2021/05/13 09:37:54;;;;;;;5.50;5.07;;;27.10;65.10;;;;;;5074883;28;20774;-78
2021/05/13 09:40:22;;;;;;;7.10;4.80;;;27.60;64.10;;;;;;5074098;28;20473;-78
2021/05/13 09:42:48;;;;;;;6.47;5.87;;;27.70;60.50;;;;;;5074413;28;20421;-78
2021/05/13 09:45:14;;;;;;;8.10;5.70;;;28.00;60.90;;;;;;5074741;28;20812;-78
2021/05/13 09:47:40;;;;;;;8.50;4.90;;;28.00;60.80;;;;;;5073792;28;20440;-77
2021/05/13 09:50:14;;;;;;;5.20;4.73;;;28.00;58.70;;;;;;5061542;28;20425;-78
2021/05/13 09:52:54;;;;;;;6.90;5.60;;;27.90;56.30;;;;;;5055179;28;20201;-78
2021/05/13 09:55:33;;;;;;;21.30;5.80;;;27.10;54.60;;;;;;5074564;28;20448;-78
2021/05/13 09:58:07;;;;;;;4.77;3.73;;;27.20;57.90;;;;;;5066024;28;20425;-78
2021/05/13 10:00:43;;;;;;;5.87;3.73;;;27.70;58.30;;;;;;5043929;28;20444;-79
2021/05/13 10:03:13;;;;;;;5.47;4.97;;;28.30;57.50;;;;;;5078916;28;20913;-78
2021/05/13 10:05:41;;;;;;;4.50;4.10;;;28.60;57.00;;;;;;5090208;28;20491;-78
2021/05/13 10:08:06;;;;;;;5.80;4.67;;;28.80;55.80;;;;;;5073133;28;20478;-79
2021/05/13 10:10:32;;;;;;;5.70;4.40;;;28.70;55.20;;;;;;5084947;28;20921;-78
2021/05/13 10:12:59;;;;;;;4.80;4.27;;;28.10;52.50;;;;;;5084252;28;20203;-78
2021/05/13 10:15:27;;;;;;;6.00;5.50;;;27.30;54.70;;;;;;5068769;28;20198;-78
2021/05/13 10:17:56;;;;;;;6.67;5.10;;;26.80;53.00;;;;;;5070907;28;20566;-78
2021/05/13 10:20:24;;;;;;;5.33;4.80;;;26.90;57.10;;;;;;5062621;28;20948;-79
2021/05/13 10:22:52;;;;;;;5.10;4.60;;;27.50;56.40;;;;;;5081747;28;20505;-79
2021/05/13 10:25:25;;;;;;;5.03;4.63;;;27.50;56.60;;;;;;5094262;28;20448;-79
2021/05/13 10:28:00;;;;;;;6.50;4.20;;;26.70;53.80;;;;;;5075728;28;20955;-79
2021/05/13 10:30:36;;;;;;;4.37;4.07;;;27.20;56.10;;;;;;5073520;28;20427;-79
2021/05/13 10:33:15;;;;;;;4.40;3.60;;;27.00;56.00;;;;;;5075909;28;20408;-79
2021/05/13 10:36:01;;;;;;;5.30;4.10;;;26.70;57.80;;;;;;5092563;28;20430;-79
2021/05/13 10:38:48;;;;;;;7.47;5.10;;;26.40;58.50;;;;;;5056104;28;20510;-79
2021/05/13 10:41:29;;;;;;;4.53;4.20;;;26.20;60.30;;;;;;5075802;28;20781;-79
2021/05/13 10:44:09;;;;;;;29.07;23.47;;;26.10;59.30;;;;;;5068296;28;20409;-78
2021/05/13 10:46:50;;;;;;;9.67;7.83;;;25.70;60.10;;;;;;5074890;28;20422;-79
2021/05/13 10:49:17;;;;;;;6.83;5.50;;;25.50;60.20;;;;;;5072403;28;20506;-79
2021/05/13 10:51:44;;;;;;;7.40;3.80;;;25.10;59.70;;;;;;5077676;28;20452;-79
2021/05/13 10:54:32;;;;;;;6.47;4.37;;;24.90;59.00;;;;;;5082539;28;20420;-79
2021/05/13 10:57:18;;;;;;;5.93;4.60;;;24.80;62.40;;;;;;5093109;28;20419;-79
2021/05/13 11:00:08;;;;;;;9.73;4.23;;;24.70;60.10;;;;;;5084617;28;20412;-78
2021/05/13 11:02:45;;;;;;;3.53;3.10;;;25.00;62.80;;;;;;5065408;28;20937;-78
2021/05/13 11:05:39;;;;;;;4.63;3.20;;;25.20;59.20;;;;;;5073742;28;20444;-79
2021/05/13 11:08:07;;;;;;;4.87;2.50;;;25.20;59.20;;;;;;5074904;28;20416;-79
2021/05/13 11:10:49;;;;;;;6.70;3.30;;;25.00;58.40;;;;;;5057095;28;20435;-79
2021/05/13 11:13:15;;;;;;;4.57;3.50;;;24.80;58.80;;;;;;5055819;28;20456;-78
2021/05/13 11:15:43;;;;;;;4.53;2.90;;;25.40;60.00;;;;;;5073651;28;20963;-79
2021/05/13 11:18:11;;;;;;;4.60;2.97;;;25.90;57.70;;;;;;5058098;28;20421;-78
2021/05/13 11:20:46;;;;;;;5.00;2.37;;;26.50;56.10;;;;;;5072091;28;20786;-79
2021/05/13 11:23:32;;;;;;;4.37;2.30;;;27.30;55.90;;;;;;5070458;28;20455;-79
2021/05/13 11:26:11;;;;;;;7.37;3.00;;;28.10;54.00;;;;;;5070601;28;20440;-79
2021/05/13 11:28:46;;;;;;;4.40;2.93;;;28.80;54.00;;;;;;5072824;28;20943;-79
2021/05/13 11:31:18;;;;;;;4.97;2.70;;;29.20;48.50;;;;;;5073270;28;20786;-79
2021/05/13 11:33:51;;;;;;;2.43;2.23;;;29.20;47.20;;;;;;5072978;28;20416;-78
2021/05/13 11:36:29;;;;;;;5.67;2.70;;;29.40;49.00;;;;;;5072801;28;20436;-78
2021/05/13 11:39:00;;;;;;;3.30;2.73;;;29.90;46.40;;;;;;5072991;28;20422;-79
2021/05/13 11:41:26;;;;;;;3.63;2.10;;;30.20;46.90;;;;;;5070820;28;20452;-79
2021/05/13 11:43:52;;;;;;;3.80;2.03;;;30.50;48.00;;;;;;5063828;28;20420;-78
2021/05/13 11:46:22;;;;;;;4.07;2.40;;;30.70;45.60;;;;;;5072217;28;20448;-79
2021/05/13 11:48:49;;;;;;;2.07;1.70;;;31.10;46.00;;;;;;5054850;28;20976;-79
2021/05/13 11:51:26;;;;;;;3.77;2.50;;;31.30;45.00;;;;;;5072469;28;20448;-79
2021/05/13 11:54:03;;;;;;;5.00;2.40;;;31.50;45.80;;;;;;5072117;28;20756;-79
2021/05/13 11:56:30;;;;;;;37.80;34.10;;;31.10;42.80;;;;;;5072849;28;20815;-78
2021/05/13 11:58:58;;;;;;;3.83;2.10;;;29.60;44.30;;;;;;5073050;28;20397;-78
2021/05/13 12:01:43;;;;;;;3.17;1.93;;;30.30;45.70;;;;;;5072720;28;20462;-79
2021/05/13 12:04:10;;;;;;;4.40;2.10;;;30.60;45.60;;;;;;5072844;28;20452;-79
2021/05/13 12:07:00;;;;;;;4.30;2.67;;;30.90;43.70;;;;;;5072654;28;20781;-79
2021/05/13 12:09:27;;;;;;;4.80;2.17;;;30.90;42.00;;;;;;5071623;28;20420;-79
2021/05/13 12:11:54;;;;;;;6.43;2.40;;;31.10;43.20;;;;;;5070362;28;20547;-78
2021/05/13 12:14:27;;;;;;;16.20;3.57;;;31.20;42.30;;;;;;5054767;28;20792;-78
2021/05/13 12:17:04;;;;;;;3.43;2.40;;;31.10;44.80;;;;;;5071862;28;20469;-78
2021/05/13 12:19:32;;;;;;;3.00;2.70;;;31.40;47.30;;;;;;5071545;28;20416;-78
2021/05/13 12:22:00;;;;;;;4.97;2.67;;;31.50;46.60;;;;;;5072015;28;20427;-79
2021/05/13 12:24:31;;;;;;;3.90;2.10;;;31.50;46.30;;;;;;5072657;28;20461;-79
2021/05/13 12:26:57;;;;;;;5.47;2.90;;;31.00;44.80;;;;;;5073242;28;20474;-79
2021/05/13 12:29:24;;;;;;;3.00;2.70;;;30.70;44.10;;;;;;5073712;28;20794;-78
2021/05/13 12:31:50;;;;;;;2.87;2.63;;;29.50;44.50;;;;;;5073865;28;20459;-78
2021/05/13 12:34:41;;;;;;;2.87;2.47;;;28.30;44.10;;;;;;5073550;28;20423;-79
2021/05/13 12:37:08;;;;;;;5.33;2.50;;;28.10;46.00;;;;;;5069988;28;20459;-79
2021/05/13 12:39:36;;;;;;;3.77;2.40;;;27.80;47.30;;;;;;5073736;28;20424;-79
2021/05/13 12:42:03;;;;;;;6.00;2.30;;;27.30;47.90;;;;;;5074777;28;20417;-79
2021/05/13 12:44:34;;;;;;;3.10;2.00;;;26.60;47.80;;;;;;5072536;28;20444;-79
2021/05/13 12:47:10;;;;;;;5.70;2.70;;;25.70;48.40;;;;;;5064467;28;20412;-79
2021/05/13 12:49:36;;;;;;;3.10;2.40;;;25.60;49.60;;;;;;5058176;28;20587;-79
2021/05/13 12:52:07;;;;;;;2.37;1.80;;;25.40;50.30;;;;;;5075590;28;21012;-79